Airfield :
LOGIN :

Register | Disclaimer

   EN    FR    IT 

 










Legend :    VFR   Marginal VFR   IFR   Intensive IFR   Very Intensive IFR
Visi :
Ceiling :
>= 8 km
>= 3000ft
5 to 8 km
1000 to 3000 ft
1500m to 5 km
500 to 1000 ft
800 to 1500m
200 to 500 ft
< 800m
< 200 ft
Symbols :   Thunderstorms  Fog  Heavy snow  Heavy precipitations  Wind > 20 kt
SIGMETs :     Misc.  Thunderstorms  Icing  Turbulence  Mountain Waves  Volcanic Ashes







- Airport Elevation : -15 ft
- IATA code : RTM


EHRD - Rotterdam Zestienhoven

CURRENT METAR :
  • 152225Z AUTO 14015KT 110V170 2500 -SN BKN015CB OVC031 M00/M03 Q1011 BECMG BKN012

EXPIRED METARs :
  • 152155Z AUTO 14018KT 110V170 4200 -SN FEW019CB SCT028 OVC036 00/M04 Q1011 BECMG FM2200 4500 -SNRA BKN040
  • 152125Z AUTO 15017G27KT 110V180 9999 NSC 01/M05 Q1011 BECMG FM2200 4500 -SNRA BKN040
  • 152055Z AUTO 14017KT 9999 NSC 01/M05 Q1012 BECMG FM2200 4500 -SNRA BKN040
  • 152025Z AUTO 13015KT 100V160 9999 NSC 01/M05 Q1012 NOSIG
  • 151955Z AUTO 13015KT 100V170 9999 NSC 00/M05 Q1013 NOSIG

TAF TAF EHRD
Valid from the 15 at 18:00 until the 17 at 00:00 UTC


151718Z 1518/1624 14018G29KT CAVOK
BECMG 1520/1523 4000 -SN BKN015
PROB40
TEMPO 1522/1602 1000 SN VV005
BECMG 1601/1604 17012KT BR -DZ OVC004
PROB40 1604/1616 1500 OVC002
PROB40 1616/1624 0500 FG VV001
No reported NOTAMs for that airfield.
1 SIGMET reported for the Amsterdam FIR (EHAA) :
 
Severe icing with freezing rain
EHAA SIGMET 1 VALID 151920/152330 EHDB
EHAA AMSTERDAM FIR SEV ICE (FZRA) FCST S OF LINE N5157 E00214 - N5109 E00426 SFC/FL050 MOV NE 25KT NC=



MET'MAP, your aeronautical weather chart ! - Copyright ORBIFLY December 2007 - Disclaimer

ORBIFLY MET'MAP TEAM :

Programming & Development : Alexandra Zaïnal
Concept & Development : Baudouin d'Aumeries
Co-Development & Prog : Marc-Olivier Méhu
Technical & hardware support : Manuel Goepfert

Contact : metmap@orbifly.com




SOURCES & CREDITS :

   NOAA